Berrien Center, MI (49102)

3:07 PM EST on February 06, 2016 (GMT -0500)
Berrien Center, MI - Rural | | Change Station
CLOSE
Current Station
Personal Weather Station
Location: Berrien Center, MI
Elevation: 745 ft
Nearby Weather Stations

Elev 745 ft 41.95 °N, 86.29 °W | Updated 12 minutes ago

Clear
Clear
38.7 °F
Feels Like 35 °F
N
4.7
Wind Variable Wind from SW

Today
High -- | Low -- °F
--% Chance of Precip.
Yesterday
High -- | Low -- °F
Precip. -- in
Pressure 30.21 in
Visibility 10.0 miles
Clouds Mostly Cloudy 3200 ft
Windchill 35 °F
Dew Point 26 °F
Humidity 61%
Rainfall 0.00 in
Snow Depth Not available.
7:52 AM 6:05 PM
Waning Crescent, 4% visible
METAR KBEH 061953Z AUTO 25012KT 10SM BKN032 03/M04 A3018 RMK AO2 SLP228 T00281044
Pressure 30.21 in
Visibility 10.0 miles
Clouds Mostly Cloudy 3200 ft
Windchill 35 °F
Dew Point 26 °F
Humidity 61%
Rainfall 0.00 in
Snow Depth Not available.
7:52 AM 6:05 PM
Waning Crescent, 4% visible
METAR KBEH 061953Z AUTO 25012KT 10SM BKN032 03/M04 A3018 RMK AO2 SLP228 T00281044

10-Day Weather Forecast

Almanac

Astronomy

Feb. 06, 2016 Rise Set
Actual Time
Civil Twilight
Nautical Twilight
Astronomical Twilight
Moon
Length of Visible Light
Length of Day
Tomorrow will be .
, % of the Moon is Illuminated

Today's Extremes

State Highs State Lows

Community

WunderPhotos

Upload Photos

1,891,043 photos uploaded!

WunderBlog® & News

Nearby

Air Quality

  Air Quality AQ Index Pollutant
Not available.

Snow Depth

Station Depth Elevation

Earthquake Activity

City Distance Mag. Time & Date
Minimum magnitude displayed is 2.5.

Coastal Water Temperatures

Place Temperature

Stations

Nearby Weather Stations

Station Location Temp. Windchill Dew Point Humidity Wind Precip. Elev Updated Type
                   

Watches & Warnings

There are currently no watches in effect.